createdAt,value
2019-01-30T00:02:12.558Z,76.20
2019-01-30T00:04:42.758Z,72.62
2019-01-30T00:07:13.242Z,57.48
2019-01-30T00:09:43.738Z,58.80
2019-01-30T00:12:14.669Z,47.88
2019-01-30T00:14:45.456Z,49.90
2019-01-30T00:17:15.642Z,47.78
2019-01-30T00:19:46.000Z,46.92
2019-01-30T00:22:16.211Z,45.03
2019-01-30T00:24:46.812Z,49.95
2019-01-30T00:27:17.503Z,49.45
2019-01-30T00:29:47.945Z,51.13
2019-01-30T00:32:18.338Z,49.95
2019-01-30T00:34:49.296Z,53.28
2019-01-30T00:37:19.502Z,54.15
2019-01-30T00:39:50.066Z,47.67
2019-01-30T00:42:21.794Z,58.78
2019-01-30T00:44:52.058Z,50.58
2019-01-30T00:47:22.800Z,43.02
2019-01-30T00:49:53.271Z,57.35
2019-01-30T00:52:23.397Z,56.30
2019-01-30T00:54:53.534Z,48.10
2019-01-30T00:57:23.956Z,43.85
2019-01-30T00:59:54.402Z,54.03
2019-01-30T01:02:24.842Z,54.42
2019-01-30T01:04:55.198Z,48.08
2019-01-30T01:07:25.457Z,48.90
2019-01-30T01:09:56.282Z,53.15
2019-01-30T01:12:27.308Z,50.95
2019-01-30T01:14:57.820Z,47.83
2019-01-30T01:17:28.455Z,46.85
2019-01-30T01:19:58.792Z,43.30
2019-01-30T01:22:29.028Z,54.67
2019-01-30T01:24:59.506Z,46.02
2019-01-30T01:27:31.130Z,42.73
2019-01-30T01:30:01.958Z,48.80
2019-01-30T01:32:32.228Z,51.30
2019-01-30T01:35:02.576Z,48.05
2019-01-30T01:37:32.737Z,55.17
2019-01-30T01:40:03.245Z,53.00
2019-01-30T01:42:33.808Z,43.00
2019-01-30T01:45:05.402Z,49.08
2019-01-30T01:47:35.614Z,59.75
2019-01-30T01:50:12.058Z,48.85
2019-01-30T01:52:42.393Z,46.77
2019-01-30T01:55:13.373Z,45.92
2019-01-30T01:57:43.719Z,49.15
2019-01-30T02:00:22.191Z,49.23
2019-01-30T02:02:52.503Z,40.40
2019-01-30T02:05:23.895Z,50.20
2019-01-30T02:07:54.319Z,48.05
2019-01-30T02:10:25.739Z,50.78
2019-01-30T02:12:56.006Z,48.02
2019-01-30T02:15:26.171Z,45.58
2019-01-30T02:17:56.529Z,41.10
2019-01-30T02:20:32.646Z,41.75
2019-01-30T02:23:02.899Z,42.50
2019-01-30T02:25:33.324Z,54.53
2019-01-30T02:28:03.599Z,48.05
2019-01-30T02:30:33.933Z,50.75
2019-01-30T02:33:04.174Z,48.05
2019-01-30T02:35:34.456Z,49.03
2019-01-30T02:38:04.750Z,49.15
2019-01-30T02:40:35.447Z,46.00
2019-01-30T02:43:05.935Z,47.98
2019-01-30T02:45:36.266Z,45.23
2019-01-30T02:48:06.890Z,42.55
2019-01-30T02:50:37.693Z,43.60
2019-01-30T02:53:10.395Z,42.48
2019-01-30T02:55:40.559Z,49.42
2019-01-30T02:58:12.097Z,42.15
2019-01-30T03:00:42.621Z,43.73
2019-01-30T03:03:12.941Z,44.53
2019-01-30T03:05:43.141Z,45.17
2019-01-30T03:08:14.235Z,51.23
2019-01-30T03:10:44.507Z,44.25
2019-01-30T03:13:14.645Z,44.93
2019-01-30T03:15:45.083Z,45.15
2019-01-30T03:18:15.585Z,37.33
2019-01-30T03:20:46.232Z,49.27
2019-01-30T03:23:17.074Z,44.38
2019-01-30T03:25:47.290Z,42.38
2019-01-30T03:28:17.625Z,45.95
2019-01-30T03:30:47.855Z,47.75
2019-01-30T03:33:18.158Z,51.48
2019-01-30T03:35:48.386Z,44.60
2019-01-30T03:38:19.226Z,35.73
2019-01-30T03:40:49.975Z,42.83
2019-01-30T03:43:20.313Z,45.75
2019-01-30T03:45:51.803Z,43.40
2019-01-30T03:48:22.493Z,49.03
2019-01-30T03:50:53.241Z,45.88
2019-01-30T03:53:23.463Z,46.20
2019-01-30T03:55:53.769Z,42.90
2019-01-30T03:58:24.492Z,36.33
2019-01-30T04:00:55.854Z,37.80
2019-01-30T04:03:26.570Z,49.93
2019-01-30T04:05:56.505Z,37.93
2019-01-30T04:08:26.687Z,45.25
2019-01-30T04:10:56.832Z,43.15
2019-01-30T04:13:27.213Z,43.38
2019-01-30T04:15:57.643Z,44.60
2019-01-30T04:18:27.733Z,42.45
2019-01-30T04:20:58.098Z,43.70
2019-01-30T04:23:28.137Z,39.25
2019-01-30T04:25:58.266Z,44.42
2019-01-30T04:28:28.899Z,38.88
2019-01-30T04:30:59.221Z,40.85
2019-01-30T04:33:29.540Z,34.98
2019-01-30T04:36:00.115Z,41.53
2019-01-30T04:38:31.312Z,41.00
2019-01-30T04:41:01.949Z,37.33
2019-01-30T04:43:32.049Z,38.73
2019-01-30T04:46:02.296Z,38.58
2019-01-30T04:48:32.410Z,35.38
2019-01-30T04:51:02.518Z,39.27
2019-01-30T04:53:33.169Z,44.65
2019-01-30T04:56:03.412Z,37.40
2019-01-30T04:58:33.721Z,41.30
2019-01-30T05:01:04.660Z,37.05
2019-01-30T05:03:35.312Z,43.00
2019-01-30T05:06:05.995Z,42.00
2019-01-30T05:08:36.468Z,42.83
2019-01-30T05:11:06.858Z,45.35
2019-01-30T05:13:37.271Z,41.90
2019-01-30T05:16:07.538Z,38.58
2019-01-30T05:18:38.140Z,42.03
2019-01-30T05:21:09.989Z,43.80
2019-01-30T05:23:40.945Z,34.08
2019-01-30T05:26:10.924Z,38.80
2019-01-30T05:28:41.296Z,33.95
2019-01-30T05:31:11.491Z,41.40
2019-01-30T05:33:41.733Z,37.95
2019-01-30T05:36:12.031Z,34.30
2019-01-30T05:38:42.193Z,42.13
2019-01-30T05:41:12.192Z,49.48
2019-01-30T05:43:43.314Z,46.75
2019-01-30T05:46:13.568Z,46.73
2019-01-30T05:48:44.186Z,37.95
2019-01-30T05:51:14.818Z,44.93
2019-01-30T05:53:45.249Z,37.30
2019-01-30T05:56:15.905Z,44.30
2019-01-30T05:58:46.776Z,48.35
2019-01-30T06:01:18.460Z,41.73
2019-01-30T06:03:49.527Z,37.67
2019-01-30T06:06:20.900Z,46.63
2019-01-30T06:08:52.545Z,35.45
2019-01-30T06:11:22.953Z,39.70
2019-01-30T06:13:53.645Z,40.12
2019-01-30T06:16:24.349Z,41.23
2019-01-30T06:18:55.165Z,50.20
2019-01-30T06:21:25.591Z,46.30
2019-01-30T06:23:55.901Z,46.15
2019-01-30T06:26:26.445Z,41.90
2019-01-30T06:28:56.837Z,50.45
2019-01-30T06:31:27.282Z,46.15
2019-01-30T06:33:57.528Z,40.73
2019-01-30T06:36:28.123Z,46.68
2019-01-30T06:38:58.496Z,40.28
2019-01-30T06:41:28.901Z,40.50
2019-01-30T06:43:59.130Z,39.10
2019-01-30T06:46:29.544Z,35.83
2019-01-30T06:49:00.122Z,44.18
2019-01-30T06:51:30.513Z,39.60
2019-01-30T06:54:01.101Z,32.30
2019-01-30T06:56:31.435Z,43.55
2019-01-30T06:59:02.058Z,33.15
2019-01-30T07:01:33.400Z,33.20
2019-01-30T07:04:04.059Z,32.40
2019-01-30T07:06:35.661Z,40.20
2019-01-30T07:09:09.198Z,36.23
2019-01-30T07:11:39.932Z,32.38
2019-01-30T07:14:10.627Z,33.40
2019-01-30T07:16:43.515Z,32.20
2019-01-30T07:19:14.534Z,33.63
2019-01-30T07:21:45.258Z,36.35
2019-01-30T07:24:16.423Z,34.45
2019-01-30T07:26:47.372Z,30.45
2019-01-30T07:29:18.265Z,34.83
2019-01-30T07:31:49.018Z,27.90
2019-01-30T07:34:19.794Z,31.05
2019-01-30T07:36:51.384Z,29.60
2019-01-30T07:39:23.562Z,32.38
2019-01-30T07:41:54.243Z,29.87
2019-01-30T07:44:24.700Z,29.55
2019-01-30T07:46:55.551Z,31.02
2019-01-30T07:49:26.178Z,27.58
2019-01-30T07:51:56.748Z,35.75
2019-01-30T07:54:27.852Z,26.05
2019-01-30T07:56:58.317Z,28.60
2019-01-30T07:59:28.813Z,32.98
2019-01-30T08:01:59.431Z,33.42
2019-01-30T08:04:29.792Z,30.92
2019-01-30T08:07:02.846Z,42.53
2019-01-30T08:09:32.632Z,33.65
2019-01-30T08:12:03.210Z,38.60
2019-01-30T08:14:33.890Z,33.83
2019-01-30T08:17:04.883Z,31.15
2019-01-30T08:19:35.417Z,27.70
2019-01-30T08:22:06.335Z,32.35
2019-01-30T08:24:37.102Z,32.15
2019-01-30T08:27:07.527Z,30.17
2019-01-30T08:29:38.204Z,29.55
2019-01-30T08:32:08.803Z,29.72
2019-01-30T08:34:39.527Z,32.10
2019-01-30T08:37:09.937Z,40.40
2019-01-30T08:39:40.164Z,44.93
2019-01-30T08:42:10.696Z,48.60
2019-01-30T08:44:46.903Z,27.85
2019-01-30T08:47:12.713Z,26.77
2019-01-30T08:49:43.108Z,32.88
2019-01-30T08:52:13.726Z,43.90
2019-01-30T08:54:44.059Z,31.33
2019-01-30T08:57:14.937Z,34.98
2019-01-30T08:59:45.422Z,46.77
2019-01-30T09:02:15.717Z,36.28
2019-01-30T09:04:47.651Z,40.30
2019-01-30T09:07:18.170Z,33.25
2019-01-30T09:09:48.786Z,30.20
2019-01-30T09:12:19.188Z,30.62
2019-01-30T09:14:49.641Z,30.82
2019-01-30T09:17:19.680Z,30.60
2019-01-30T09:19:49.874Z,28.23
2019-01-30T09:22:20.082Z,28.05
2019-01-30T09:24:50.170Z,29.75
2019-01-30T09:27:20.408Z,28.60
2019-01-30T09:29:50.978Z,32.65
2019-01-30T09:32:22.846Z,23.90
2019-01-30T09:34:52.954Z,26.93
2019-01-30T09:37:23.179Z,25.35
2019-01-30T09:39:53.759Z,23.25
2019-01-30T09:42:24.437Z,29.95
2019-01-30T09:44:54.655Z,27.85
2019-01-30T09:47:24.971Z,23.02
2019-01-30T09:49:55.076Z,26.52
2019-01-30T09:52:26.867Z,18.10
2019-01-30T09:54:57.578Z,20.55
2019-01-30T09:57:27.997Z,19.40
2019-01-30T09:59:58.462Z,19.80
2019-01-30T10:02:28.909Z,21.60
2019-01-30T10:04:59.094Z,13.83
2019-01-30T10:07:29.691Z,12.98
2019-01-30T10:10:00.353Z,16.17
2019-01-30T10:12:30.833Z,18.95
2019-01-30T10:15:01.397Z,15.25
2019-01-30T10:17:31.840Z,15.80
2019-01-30T10:20:02.324Z,15.70
2019-01-30T10:22:32.802Z,12.00
2019-01-30T10:25:03.395Z,13.72
2019-01-30T10:27:33.818Z,12.53
2019-01-30T10:30:06.276Z,14.10
2019-01-30T10:32:36.733Z,13.62
2019-01-30T10:35:07.895Z,12.37
2019-01-30T10:37:38.005Z,15.75
2019-01-30T10:40:14.127Z,12.75
2019-01-30T10:42:44.814Z,13.75
2019-01-30T10:45:15.556Z,14.50
2019-01-30T10:47:45.859Z,14.03
2019-01-30T10:50:19.189Z,12.03
2019-01-30T10:52:49.596Z,10.48
2019-01-30T10:55:27.762Z,12.10
2019-01-30T10:57:59.634Z,16.00
2019-01-30T11:00:32.620Z,13.13
2019-01-30T11:03:02.832Z,14.60
2019-01-30T11:05:33.016Z,14.70
2019-01-30T11:08:03.193Z,13.03
2019-01-30T11:10:33.628Z,15.08
2019-01-30T11:13:04.286Z,13.27
2019-01-30T11:15:35.424Z,14.30
2019-01-30T11:18:08.384Z,15.48
2019-01-30T11:20:39.176Z,12.65
2019-01-30T11:23:09.675Z,12.80
2019-01-30T11:25:45.295Z,15.80
2019-01-30T11:28:15.743Z,14.38
2019-01-30T11:30:45.844Z,14.85
2019-01-30T11:33:16.245Z,15.18
2019-01-30T11:35:46.671Z,16.73
2019-01-30T11:38:17.460Z,14.43
2019-01-30T11:40:47.788Z,14.93
2019-01-30T11:43:18.117Z,13.25
2019-01-30T11:45:48.636Z,13.83
2019-01-30T11:48:18.711Z,14.95
2019-01-30T11:50:48.909Z,11.93
2019-01-30T11:53:20.198Z,14.33
2019-01-30T11:55:51.400Z,15.30
2019-01-30T11:58:21.888Z,12.68
2019-01-30T12:00:56.652Z,14.87
2019-01-30T12:03:27.167Z,14.63
2019-01-30T12:05:57.512Z,14.07
2019-01-30T12:08:27.879Z,13.50
2019-01-30T12:10:58.116Z,14.65
2019-01-30T12:13:28.383Z,12.73
2019-01-30T12:15:58.856Z,13.98
2019-01-30T12:18:29.104Z,12.80
2019-01-30T12:20:59.318Z,13.07
2019-01-30T12:23:31.181Z,12.73
2019-01-30T12:26:02.781Z,11.75
2019-01-30T12:28:33.453Z,12.07
2019-01-30T12:31:03.544Z,14.23
2019-01-30T12:33:33.943Z,12.63
2019-01-30T12:36:04.911Z,13.10
2019-01-30T12:38:35.238Z,13.70
2019-01-30T12:41:05.912Z,12.85
2019-01-30T12:43:36.474Z,16.37
2019-01-30T12:46:06.652Z,14.90
2019-01-30T12:48:37.136Z,12.20
2019-01-30T12:51:07.615Z,13.05
2019-01-30T12:53:38.213Z,13.35
2019-01-30T12:56:08.580Z,13.62
2019-01-30T12:58:39.279Z,10.95
2019-01-30T13:01:09.619Z,13.37
2019-01-30T13:03:40.067Z,11.90
2019-01-30T13:06:10.602Z,14.53
2019-01-30T13:08:41.261Z,14.60
2019-01-30T13:11:11.321Z,13.25
2019-01-30T13:13:41.526Z,15.35
2019-01-30T13:16:11.894Z,12.07
2019-01-30T13:18:42.089Z,11.57
2019-01-30T13:21:12.469Z,13.83
2019-01-30T13:23:42.727Z,12.73
2019-01-30T13:26:13.066Z,11.33
2019-01-30T13:28:43.379Z,9.65
2019-01-30T13:31:13.629Z,12.82
2019-01-30T13:33:44.471Z,10.45
2019-01-30T13:36:14.984Z,9.28
2019-01-30T13:38:45.208Z,10.88
2019-01-30T13:41:15.624Z,16.15
2019-01-30T13:43:45.862Z,11.75
2019-01-30T13:46:16.082Z,13.22
2019-01-30T13:48:46.211Z,12.18
2019-01-30T13:51:16.726Z,17.40
2019-01-30T13:53:47.297Z,10.48
2019-01-30T13:56:17.445Z,16.05
2019-01-30T13:58:47.859Z,14.40
2019-01-30T14:01:18.330Z,13.93
2019-01-30T14:03:49.816Z,14.50
2019-01-30T14:06:20.183Z,14.87
2019-01-30T14:08:50.362Z,14.33
2019-01-30T14:11:20.888Z,10.82
2019-01-30T14:13:51.154Z,11.60
2019-01-30T14:16:22.290Z,9.58
2019-01-30T14:18:52.917Z,8.68
2019-01-30T14:21:23.635Z,12.13
2019-01-30T14:23:54.482Z,10.82
2019-01-30T14:26:24.968Z,11.00
2019-01-30T14:28:55.654Z,12.00
2019-01-30T14:31:26.223Z,12.10
2019-01-30T14:33:57.067Z,10.05
2019-01-30T14:36:27.769Z,15.05
2019-01-30T14:38:58.245Z,11.78
2019-01-30T14:41:28.791Z,9.93
2019-01-30T14:43:58.986Z,8.30
2019-01-30T14:46:29.196Z,13.00
2019-01-30T14:48:59.554Z,13.65
2019-01-30T14:51:29.881Z,10.68
2019-01-30T14:54:00.381Z,11.90
2019-01-30T14:56:30.790Z,9.83
2019-01-30T14:59:01.928Z,11.65
2019-01-30T15:01:33.733Z,11.93
2019-01-30T15:04:04.024Z,8.93
2019-01-30T15:06:34.222Z,13.65
2019-01-30T15:09:08.093Z,12.15
2019-01-30T15:11:38.352Z,12.25
2019-01-30T15:14:08.731Z,11.10
2019-01-30T15:16:39.103Z,15.45
2019-01-30T15:19:09.288Z,16.27
2019-01-30T15:21:40.855Z,12.25
2019-01-30T15:24:11.441Z,10.32
2019-01-30T15:26:42.046Z,16.20
2019-01-30T15:29:12.314Z,15.32
2019-01-30T15:31:42.824Z,11.97
2019-01-30T15:34:13.067Z,13.98
2019-01-30T15:36:43.308Z,13.48
2019-01-30T15:39:13.799Z,16.80
2019-01-30T15:41:43.876Z,17.10
2019-01-30T15:44:14.355Z,17.35
2019-01-30T15:46:44.572Z,12.13
2019-01-30T15:49:14.682Z,12.35
2019-01-30T15:51:45.294Z,16.95
2019-01-30T15:54:18.560Z,14.78
2019-01-30T15:56:47.326Z,12.73
2019-01-30T15:59:17.623Z,19.60
2019-01-30T16:01:47.742Z,18.82
2019-01-30T16:04:17.926Z,13.65
2019-01-30T16:06:48.084Z,24.30
2019-01-30T16:09:18.437Z,16.85
2019-01-30T16:11:50.465Z,14.68
2019-01-30T16:14:20.396Z,12.00
2019-01-30T16:16:52.112Z,16.57
2019-01-30T16:19:22.330Z,15.45
2019-01-30T16:21:52.792Z,21.42
2019-01-30T16:24:23.044Z,16.32
2019-01-30T16:26:53.710Z,14.98
2019-01-30T16:29:24.108Z,16.57
2019-01-30T16:31:54.529Z,17.95
2019-01-30T16:34:24.828Z,15.43
2019-01-30T16:36:55.173Z,17.57
2019-01-30T16:39:25.149Z,17.65
2019-01-30T16:41:55.467Z,20.37
2019-01-30T16:44:26.053Z,16.25
2019-01-30T16:46:56.361Z,18.02
2019-01-30T16:49:26.761Z,20.35
2019-01-30T16:51:57.057Z,18.90
2019-01-30T16:54:27.182Z,13.85
2019-01-30T16:56:57.242Z,30.17
2019-01-30T16:59:27.578Z,49.70
2019-01-30T17:01:57.890Z,30.10
2019-01-30T17:04:28.106Z,14.85
2019-01-30T17:06:58.590Z,17.23
2019-01-30T17:09:28.636Z,18.98
2019-01-30T17:11:59.460Z,19.62
2019-01-30T17:14:29.684Z,25.97
2019-01-30T17:17:00.186Z,18.10
2019-01-30T17:19:30.380Z,20.32
2019-01-30T17:22:00.779Z,18.73
2019-01-30T17:24:31.045Z,19.87
2019-01-30T17:27:01.216Z,17.85
2019-01-30T17:29:31.175Z,15.93
2019-01-30T17:32:01.362Z,16.32
2019-01-30T17:34:31.521Z,14.40
2019-01-30T17:37:01.718Z,17.15
2019-01-30T17:39:31.986Z,18.85
2019-01-30T17:42:02.165Z,20.85
2019-01-30T17:44:32.447Z,19.75
2019-01-30T17:47:02.756Z,15.65
2019-01-30T17:49:33.161Z,18.07
2019-01-30T17:52:03.491Z,21.93
2019-01-30T17:54:34.133Z,20.17
2019-01-30T17:57:04.630Z,19.60
2019-01-30T17:59:34.855Z,24.15
2019-01-30T18:02:07.228Z,22.30
2019-01-30T18:04:37.429Z,23.12
2019-01-30T18:07:07.759Z,22.15
2019-01-30T18:09:38.104Z,21.65
2019-01-30T18:12:08.412Z,18.45
2019-01-30T18:14:38.447Z,18.50
2019-01-30T18:17:08.874Z,18.82
2019-01-30T18:19:39.390Z,19.50
2019-01-30T18:22:09.925Z,18.57
2019-01-30T18:24:40.105Z,21.02
2019-01-30T18:27:10.432Z,19.37
2019-01-30T18:29:40.785Z,23.32
2019-01-30T18:32:11.031Z,21.35
2019-01-30T18:34:41.728Z,18.48
2019-01-30T18:37:12.006Z,22.87
2019-01-30T18:39:42.183Z,24.05
2019-01-30T18:42:12.535Z,20.65
2019-01-30T18:44:42.704Z,21.95
2019-01-30T18:47:13.039Z,19.10
2019-01-30T18:49:43.281Z,27.10
2019-01-30T18:52:13.615Z,20.70
2019-01-30T18:54:43.719Z,27.45
2019-01-30T18:57:13.968Z,19.98
2019-01-30T18:59:44.375Z,22.17
2019-01-30T19:02:14.535Z,22.80
2019-01-30T19:04:45.120Z,21.60
2019-01-30T19:07:15.319Z,22.42
2019-01-30T19:09:45.886Z,19.00
2019-01-30T19:12:16.229Z,22.82
2019-01-30T19:14:46.456Z,18.10
2019-01-30T19:17:16.989Z,21.33
2019-01-30T19:19:47.841Z,23.05
2019-01-30T19:22:18.491Z,20.32
2019-01-30T19:24:49.973Z,31.07
2019-01-30T19:27:20.359Z,23.62
2019-01-30T19:32:40.467Z,16.25
2019-01-30T19:35:12.372Z,19.85
2019-01-30T19:37:42.651Z,18.87
2019-01-30T19:40:14.417Z,21.80
2019-01-30T19:42:45.096Z,22.67
2019-01-30T19:45:18.440Z,21.02
2019-01-30T19:47:48.958Z,22.13
2019-01-30T19:50:24.780Z,25.02
2019-01-30T19:52:55.876Z,17.73
2019-01-30T19:55:25.976Z,24.65
2019-01-30T19:57:57.030Z,24.20
2019-01-30T20:00:29.717Z,21.48
2019-01-30T20:03:01.048Z,20.30
2019-01-30T20:05:31.615Z,19.62
2019-01-30T20:08:03.571Z,22.70
2019-01-30T20:10:36.024Z,18.02
2019-01-30T20:13:06.786Z,21.30
2019-01-30T20:15:37.254Z,19.73
2019-01-30T20:18:08.108Z,15.90
2019-01-30T20:20:38.911Z,17.70
2019-01-30T20:23:09.386Z,18.85
2019-01-30T20:25:43.855Z,21.85
2019-01-30T20:28:14.010Z,20.68
2019-01-30T20:30:44.024Z,22.05
2019-01-30T20:33:14.302Z,20.57
2019-01-30T20:35:44.761Z,25.55
2019-01-30T20:38:15.191Z,22.67
2019-01-30T20:40:45.492Z,24.30
2019-01-30T20:43:15.833Z,40.63
2019-01-30T20:45:45.963Z,20.95
2019-01-30T20:48:16.532Z,31.12
2019-01-30T20:50:46.744Z,28.77
2019-01-30T20:53:16.980Z,29.85
2019-01-30T20:55:47.292Z,37.33
2019-01-30T20:58:17.585Z,34.95
2019-01-30T21:00:47.777Z,29.75
2019-01-30T21:03:17.912Z,32.67
2019-01-30T21:05:48.119Z,28.05
2019-01-30T21:08:18.612Z,25.55
2019-01-30T21:10:48.842Z,25.02
2019-01-30T21:13:19.549Z,25.25
2019-01-30T21:15:49.850Z,31.60
2019-01-30T21:18:20.237Z,21.52
2019-01-30T21:20:50.824Z,32.83
2019-01-30T21:23:20.976Z,22.13
2019-01-30T21:25:51.128Z,19.92
2019-01-30T21:28:21.230Z,25.97
2019-01-30T21:30:51.618Z,26.17
2019-01-30T21:33:21.850Z,26.95
2019-01-30T21:35:51.907Z,22.58
2019-01-30T21:38:22.253Z,21.40
2019-01-30T21:40:52.432Z,24.23
2019-01-30T21:43:22.748Z,23.73
2019-01-30T21:45:53.166Z,25.92
2019-01-30T21:48:23.375Z,22.22
2019-01-30T21:50:53.757Z,24.67
2019-01-30T21:53:24.044Z,23.60
2019-01-30T21:55:54.350Z,21.15
2019-01-30T21:58:24.915Z,18.50
2019-01-30T22:00:54.877Z,21.90
2019-01-30T22:03:25.072Z,20.50
2019-01-30T22:05:55.177Z,23.35
2019-01-30T22:08:25.457Z,22.02
2019-01-30T22:10:55.753Z,21.90
2019-01-30T22:13:26.006Z,23.73
2019-01-30T22:15:56.098Z,25.45
2019-01-30T22:18:26.206Z,25.50
2019-01-30T22:20:56.574Z,22.60
2019-01-30T22:23:26.769Z,20.72
2019-01-30T22:25:56.913Z,22.90
2019-01-30T22:28:27.356Z,23.27
2019-01-30T22:30:57.597Z,24.52
2019-01-30T22:33:27.895Z,21.42
2019-01-30T22:35:58.219Z,20.15
2019-01-30T22:38:28.728Z,20.17
2019-01-30T22:40:58.973Z,20.48
2019-01-30T22:43:29.163Z,21.62
2019-01-30T22:45:59.335Z,21.52
2019-01-30T22:48:30.136Z,25.75
2019-01-30T22:51:00.547Z,19.35
2019-01-30T22:53:31.106Z,20.25
2019-01-30T22:56:01.972Z,22.10
2019-01-30T22:58:32.255Z,24.02
2019-01-30T23:01:10.074Z,22.75
2019-01-30T23:03:49.133Z,22.98
2019-01-30T23:06:28.194Z,26.68
2019-01-30T23:09:20.578Z,29.60
2019-01-30T23:12:03.032Z,40.78
2019-01-30T23:14:36.524Z,31.00
2019-01-30T23:17:22.414Z,40.58
2019-01-30T23:19:55.700Z,38.13
2019-01-30T23:22:57.938Z,37.35
2019-01-30T23:25:49.741Z,25.77
2019-01-30T23:28:26.412Z,24.98
2019-01-30T23:31:02.978Z,25.75
2019-01-30T23:33:42.650Z,24.18
2019-01-30T23:36:18.954Z,21.73
2019-01-30T23:39:05.362Z,20.02
2019-01-30T23:41:38.557Z,23.05
2019-01-30T23:44:29.648Z,22.87
2019-01-30T23:47:15.159Z,26.20
2019-01-30T23:49:54.550Z,20.43
2019-01-30T23:52:33.634Z,26.68
2019-01-30T23:55:25.149Z,25.92
2019-01-30T23:58:08.056Z,27.22
